sensor_id;sensor_type;location;lat;lon;timestamp;P1;durP1;ratioP1;P2;durP2;ratioP2
36797;SDS011;22748;8.426;99.512;2023-04-06T00:01:17;23.00;;;20.58;;
36797;SDS011;22748;8.426;99.512;2023-04-06T00:03:53;25.90;;;20.67;;
36797;SDS011;22748;8.426;99.512;2023-04-06T00:06:32;23.10;;;20.70;;
36797;SDS011;22748;8.426;99.512;2023-04-06T00:09:03;23.50;;;21.05;;
36797;SDS011;22748;8.426;99.512;2023-04-06T00:11:35;26.38;;;21.73;;
36797;SDS011;22748;8.426;99.512;2023-04-06T00:14:09;25.48;;;20.17;;
36797;SDS011;22748;8.426;99.512;2023-04-06T00:16:44;21.80;;;19.55;;
36797;SDS011;22748;8.426;99.512;2023-04-06T00:19:16;28.77;;;20.52;;
36797;SDS011;22748;8.426;99.512;2023-04-06T00:24:22;26.60;;;21.30;;
36797;SDS011;22748;8.426;99.512;2023-04-06T00:26:54;41.00;;;22.80;;
36797;SDS011;22748;8.426;99.512;2023-04-06T00:29:28;47.92;;;24.75;;
36797;SDS011;22748;8.426;99.512;2023-04-06T00:31:58;29.00;;;22.05;;
36797;SDS011;22748;8.426;99.512;2023-04-06T00:34:34;28.65;;;23.80;;
36797;SDS011;22748;8.426;99.512;2023-04-06T00:37:05;43.67;;;38.45;;
36797;SDS011;22748;8.426;99.512;2023-04-06T00:39:37;76.70;;;67.20;;
36797;SDS011;22748;8.426;99.512;2023-04-06T00:42:13;32.95;;;28.63;;
36797;SDS011;22748;8.426;99.512;2023-04-06T00:44:53;24.50;;;21.90;;
36797;SDS011;22748;8.426;99.512;2023-04-06T00:47:38;25.65;;;21.73;;
36797;SDS011;22748;8.426;99.512;2023-04-06T00:50:18;28.27;;;21.05;;
36797;SDS011;22748;8.426;99.512;2023-04-06T00:55:18;31.98;;;22.08;;
36797;SDS011;22748;8.426;99.512;2023-04-06T00:57:54;36.85;;;27.13;;
36797;SDS011;22748;8.426;99.512;2023-04-06T01:00:35;30.42;;;24.98;;
36797;SDS011;22748;8.426;99.512;2023-04-06T01:05:39;30.48;;;23.35;;
36797;SDS011;22748;8.426;99.512;2023-04-06T01:08:10;32.88;;;24.23;;
36797;SDS011;22748;8.426;99.512;2023-04-06T01:10:40;34.45;;;24.92;;
36797;SDS011;22748;8.426;99.512;2023-04-06T01:13:11;26.05;;;22.55;;
36797;SDS011;22748;8.426;99.512;2023-04-06T01:15:44;32.17;;;22.90;;
36797;SDS011;22748;8.426;99.512;2023-04-06T01:18:18;25.77;;;21.77;;
36797;SDS011;22748;8.426;99.512;2023-04-06T01:20:54;30.52;;;22.23;;
36797;SDS011;22748;8.426;99.512;2023-04-06T01:23:26;26.75;;;21.67;;
36797;SDS011;22748;8.426;99.512;2023-04-06T01:25:58;32.92;;;24.42;;
36797;SDS011;22748;8.426;99.512;2023-04-06T01:28:29;31.48;;;24.25;;
36797;SDS011;22748;8.426;99.512;2023-04-06T01:33:35;40.20;;;24.27;;
36797;SDS011;22748;8.426;99.512;2023-04-06T01:36:10;34.47;;;27.25;;
36797;SDS011;22748;8.426;99.512;2023-04-06T01:38:43;34.97;;;27.70;;
36797;SDS011;22748;8.426;99.512;2023-04-06T01:41:14;32.25;;;27.80;;
36797;SDS011;22748;8.426;99.512;2023-04-06T01:43:46;36.97;;;28.38;;
36797;SDS011;22748;8.426;99.512;2023-04-06T01:46:21;35.80;;;28.00;;
36797;SDS011;22748;8.426;99.512;2023-04-06T01:48:53;40.25;;;29.35;;
36797;SDS011;22748;8.426;99.512;2023-04-06T01:51:26;29.25;;;24.25;;
36797;SDS011;22748;8.426;99.512;2023-04-06T01:54:01;26.38;;;22.63;;
36797;SDS011;22748;8.426;99.512;2023-04-06T01:56:31;28.75;;;22.42;;
36797;SDS011;22748;8.426;99.512;2023-04-06T01:59:02;27.93;;;21.77;;
36797;SDS011;22748;8.426;99.512;2023-04-06T02:01:34;29.13;;;23.77;;
36797;SDS011;22748;8.426;99.512;2023-04-06T02:04:05;30.17;;;22.92;;
36797;SDS011;22748;8.426;99.512;2023-04-06T02:06:36;26.52;;;21.50;;
36797;SDS011;22748;8.426;99.512;2023-04-06T02:09:12;32.63;;;22.60;;
36797;SDS011;22748;8.426;99.512;2023-04-06T02:11:43;29.95;;;23.15;;
36797;SDS011;22748;8.426;99.512;2023-04-06T02:16:44;28.58;;;23.15;;
36797;SDS011;22748;8.426;99.512;2023-04-06T02:21:45;24.48;;;21.10;;
36797;SDS011;22748;8.426;99.512;2023-04-06T02:24:17;23.20;;;20.73;;
36797;SDS011;22748;8.426;99.512;2023-04-06T02:26:48;32.00;;;21.77;;
36797;SDS011;22748;8.426;99.512;2023-04-06T02:29:19;30.10;;;20.70;;
36797;SDS011;22748;8.426;99.512;2023-04-06T02:31:50;23.23;;;20.08;;
36797;SDS011;22748;8.426;99.512;2023-04-06T02:34:22;22.13;;;19.75;;
36797;SDS011;22748;8.426;99.512;2023-04-06T02:39:25;26.85;;;18.98;;
36797;SDS011;22748;8.426;99.512;2023-04-06T02:41:56;21.42;;;19.15;;
36797;SDS011;22748;8.426;99.512;2023-04-06T02:44:28;25.08;;;18.75;;
36797;SDS011;22748;8.426;99.512;2023-04-06T02:46:59;24.95;;;21.73;;
36797;SDS011;22748;8.426;99.512;2023-04-06T02:49:30;21.70;;;18.48;;
36797;SDS011;22748;8.426;99.512;2023-04-06T02:52:00;24.17;;;19.48;;
36797;SDS011;22748;8.426;99.512;2023-04-06T02:54:33;23.70;;;18.83;;
36797;SDS011;22748;8.426;99.512;2023-04-06T02:57:04;23.15;;;19.35;;
36797;SDS011;22748;8.426;99.512;2023-04-06T03:02:04;21.65;;;19.40;;
36797;SDS011;22748;8.426;99.512;2023-04-06T03:07:06;20.17;;;16.70;;
36797;SDS011;22748;8.426;99.512;2023-04-06T03:09:38;19.05;;;17.05;;
36797;SDS011;22748;8.426;99.512;2023-04-06T03:12:10;22.10;;;17.90;;
36797;SDS011;22748;8.426;99.512;2023-04-06T03:14:45;29.83;;;18.42;;
36797;SDS011;22748;8.426;99.512;2023-04-06T03:17:20;19.42;;;17.45;;
36797;SDS011;22748;8.426;99.512;2023-04-06T03:19:51;21.25;;;17.50;;
36797;SDS011;22748;8.426;99.512;2023-04-06T03:24:53;20.95;;;17.92;;
36797;SDS011;22748;8.426;99.512;2023-04-06T03:27:25;28.55;;;19.30;;
36797;SDS011;22748;8.426;99.512;2023-04-06T03:29:57;19.95;;;17.67;;
36797;SDS011;22748;8.426;99.512;2023-04-06T03:32:31;23.02;;;18.35;;
36797;SDS011;22748;8.426;99.512;2023-04-06T03:35:02;21.05;;;18.50;;
36797;SDS011;22748;8.426;99.512;2023-04-06T03:37:34;21.83;;;18.15;;
36797;SDS011;22748;8.426;99.512;2023-04-06T03:40:07;19.52;;;17.40;;
36797;SDS011;22748;8.426;99.512;2023-04-06T03:42:39;22.50;;;18.33;;
36797;SDS011;22748;8.426;99.512;2023-04-06T03:45:11;21.00;;;18.65;;
36797;SDS011;22748;8.426;99.512;2023-04-06T03:47:42;23.50;;;19.15;;
36797;SDS011;22748;8.426;99.512;2023-04-06T03:52:43;19.83;;;17.80;;
36797;SDS011;22748;8.426;99.512;2023-04-06T03:55:17;21.80;;;17.90;;
36797;SDS011;22748;8.426;99.512;2023-04-06T03:57:47;20.23;;;18.00;;
36797;SDS011;22748;8.426;99.512;2023-04-06T04:00:19;21.38;;;17.45;;
36797;SDS011;22748;8.426;99.512;2023-04-06T04:02:50;19.40;;;17.38;;
36797;SDS011;22748;8.426;99.512;2023-04-06T04:07:53;23.92;;;21.30;;
36797;SDS011;22748;8.426;99.512;2023-04-06T04:10:26;21.90;;;19.48;;
36797;SDS011;22748;8.426;99.512;2023-04-06T04:13:00;20.15;;;18.05;;
36797;SDS011;22748;8.426;99.512;2023-04-06T04:15:31;23.42;;;18.98;;
36797;SDS011;22748;8.426;99.512;2023-04-06T04:20:36;20.83;;;18.67;;
36797;SDS011;22748;8.426;99.512;2023-04-06T04:23:10;20.33;;;18.38;;
36797;SDS011;22748;8.426;99.512;2023-04-06T04:25:45;20.25;;;18.23;;
36797;SDS011;22748;8.426;99.512;2023-04-06T04:28:18;25.73;;;18.15;;
36797;SDS011;22748;8.426;99.512;2023-04-06T04:30:50;21.48;;;19.35;;
36797;SDS011;22748;8.426;99.512;2023-04-06T04:33:20;19.50;;;17.33;;
36797;SDS011;22748;8.426;99.512;2023-04-06T04:35:52;19.50;;;17.63;;
36797;SDS011;22748;8.426;99.512;2023-04-06T04:38:27;20.58;;;17.63;;
36797;SDS011;22748;8.426;99.512;2023-04-06T04:41:07;19.50;;;17.50;;
36797;SDS011;22748;8.426;99.512;2023-04-06T04:43:51;25.52;;;19.85;;
36797;SDS011;22748;8.426;99.512;2023-04-06T04:46:31;20.40;;;18.30;;
36797;SDS011;22748;8.426;99.512;2023-04-06T04:49:02;18.58;;;16.65;;
36797;SDS011;22748;8.426;99.512;2023-04-06T04:51:33;20.98;;;17.80;;
36797;SDS011;22748;8.426;99.512;2023-04-06T04:54:04;18.33;;;16.50;;
36797;SDS011;22748;8.426;99.512;2023-04-06T04:56:38;20.05;;;17.92;;
36797;SDS011;22748;8.426;99.512;2023-04-06T04:59:12;20.48;;;17.33;;
36797;SDS011;22748;8.426;99.512;2023-04-06T05:01:43;20.80;;;17.95;;
36797;SDS011;22748;8.426;99.512;2023-04-06T05:04:14;20.35;;;18.25;;
36797;SDS011;22748;8.426;99.512;2023-04-06T05:06:48;19.25;;;17.17;;
36797;SDS011;22748;8.426;99.512;2023-04-06T05:09:29;21.88;;;16.55;;
36797;SDS011;22748;8.426;99.512;2023-04-06T05:12:03;19.20;;;17.30;;
36797;SDS011;22748;8.426;99.512;2023-04-06T05:14:37;19.88;;;16.58;;
36797;SDS011;22748;8.426;99.512;2023-04-06T05:17:08;17.77;;;16.03;;
36797;SDS011;22748;8.426;99.512;2023-04-06T05:19:40;19.13;;;16.58;;
36797;SDS011;22748;8.426;99.512;2023-04-06T05:22:10;18.13;;;16.23;;
36797;SDS011;22748;8.426;99.512;2023-04-06T05:24:54;18.65;;;16.70;;
36797;SDS011;22748;8.426;99.512;2023-04-06T05:27:33;17.83;;;16.10;;
36797;SDS011;22748;8.426;99.512;2023-04-06T05:30:08;17.27;;;15.63;;
36797;SDS011;22748;8.426;99.512;2023-04-06T05:32:39;17.63;;;15.88;;
36797;SDS011;22748;8.426;99.512;2023-04-06T05:35:11;18.13;;;16.42;;
36797;SDS011;22748;8.426;99.512;2023-04-06T05:37:43;18.67;;;16.95;;
36797;SDS011;22748;8.426;99.512;2023-04-06T05:40:14;18.75;;;17.02;;
36797;SDS011;22748;8.426;99.512;2023-04-06T05:42:47;18.33;;;16.08;;
36797;SDS011;22748;8.426;99.512;2023-04-06T05:45:18;17.17;;;15.63;;
36797;SDS011;22748;8.426;99.512;2023-04-06T05:47:48;17.58;;;15.75;;
36797;SDS011;22748;8.426;99.512;2023-04-06T05:50:20;17.50;;;15.73;;
36797;SDS011;22748;8.426;99.512;2023-04-06T05:52:57;17.77;;;15.65;;
36797;SDS011;22748;8.426;99.512;2023-04-06T05:55:29;17.08;;;15.30;;
36797;SDS011;22748;8.426;99.512;2023-04-06T05:58:07;16.77;;;15.20;;
36797;SDS011;22748;8.426;99.512;2023-04-06T06:00:39;17.90;;;14.85;;
36797;SDS011;22748;8.426;99.512;2023-04-06T06:03:12;16.88;;;15.48;;
36797;SDS011;22748;8.426;99.512;2023-04-06T06:05:43;17.48;;;15.90;;
36797;SDS011;22748;8.426;99.512;2023-04-06T06:08:15;17.35;;;15.60;;
36797;SDS011;22748;8.426;99.512;2023-04-06T06:10:45;18.88;;;16.88;;
36797;SDS011;22748;8.426;99.512;2023-04-06T06:13:25;16.73;;;15.05;;
36797;SDS011;22748;8.426;99.512;2023-04-06T06:15:56;16.35;;;14.68;;
36797;SDS011;22748;8.426;99.512;2023-04-06T06:18:26;16.20;;;14.60;;
36797;SDS011;22748;8.426;99.512;2023-04-06T06:21:02;16.50;;;15.00;;
36797;SDS011;22748;8.426;99.512;2023-04-06T06:23:32;16.85;;;15.30;;
36797;SDS011;22748;8.426;99.512;2023-04-06T06:26:02;18.40;;;15.37;;
36797;SDS011;22748;8.426;99.512;2023-04-06T06:28:35;17.55;;;15.23;;
36797;SDS011;22748;8.426;99.512;2023-04-06T06:31:06;15.48;;;13.98;;
36797;SDS011;22748;8.426;99.512;2023-04-06T06:33:36;16.60;;;15.07;;
36797;SDS011;22748;8.426;99.512;2023-04-06T06:36:07;16.17;;;14.77;;
36797;SDS011;22748;8.426;99.512;2023-04-06T06:38:37;17.25;;;14.70;;
36797;SDS011;22748;8.426;99.512;2023-04-06T06:41:08;16.98;;;15.35;;
36797;SDS011;22748;8.426;99.512;2023-04-06T06:46:31;16.77;;;15.25;;
36797;SDS011;22748;8.426;99.512;2023-04-06T06:49:05;18.10;;;14.45;;
36797;SDS011;22748;8.426;99.512;2023-04-06T06:51:37;16.75;;;14.95;;
36797;SDS011;22748;8.426;99.512;2023-04-06T06:54:07;18.85;;;15.60;;
36797;SDS011;22748;8.426;99.512;2023-04-06T06:56:38;16.15;;;14.65;;
36797;SDS011;22748;8.426;99.512;2023-04-06T06:59:10;16.83;;;15.18;;
36797;SDS011;22748;8.426;99.512;2023-04-06T07:01:42;16.95;;;15.27;;
36797;SDS011;22748;8.426;99.512;2023-04-06T07:04:13;16.20;;;14.60;;
36797;SDS011;22748;8.426;99.512;2023-04-06T07:06:44;16.25;;;14.55;;
36797;SDS011;22748;8.426;99.512;2023-04-06T07:09:14;15.30;;;13.93;;
36797;SDS011;22748;8.426;99.512;2023-04-06T07:11:45;16.88;;;14.95;;
36797;SDS011;22748;8.426;99.512;2023-04-06T07:14:20;16.13;;;14.43;;
36797;SDS011;22748;8.426;99.512;2023-04-06T07:16:50;18.27;;;16.27;;
36797;SDS011;22748;8.426;99.512;2023-04-06T07:19:21;16.35;;;14.75;;
36797;SDS011;22748;8.426;99.512;2023-04-06T07:21:51;17.15;;;15.13;;
36797;SDS011;22748;8.426;99.512;2023-04-06T07:24:23;16.67;;;15.05;;
36797;SDS011;22748;8.426;99.512;2023-04-06T07:26:54;18.00;;;15.75;;
36797;SDS011;22748;8.426;99.512;2023-04-06T07:29:27;16.83;;;15.23;;
36797;SDS011;22748;8.426;99.512;2023-04-06T07:31:57;19.90;;;17.08;;
36797;SDS011;22748;8.426;99.512;2023-04-06T07:34:29;16.95;;;15.25;;
36797;SDS011;22748;8.426;99.512;2023-04-06T07:37:00;17.95;;;16.25;;
36797;SDS011;22748;8.426;99.512;2023-04-06T07:39:31;16.83;;;15.13;;
36797;SDS011;22748;8.426;99.512;2023-04-06T07:42:01;20.33;;;15.55;;
36797;SDS011;22748;8.426;99.512;2023-04-06T07:44:33;16.45;;;14.85;;
36797;SDS011;22748;8.426;99.512;2023-04-06T07:47:04;18.02;;;16.23;;
36797;SDS011;22748;8.426;99.512;2023-04-06T07:49:34;16.73;;;15.17;;
36797;SDS011;22748;8.426;99.512;2023-04-06T07:52:04;16.33;;;14.73;;
36797;SDS011;22748;8.426;99.512;2023-04-06T07:54:35;17.25;;;15.52;;
36797;SDS011;22748;8.426;99.512;2023-04-06T07:57:05;18.13;;;15.73;;
36797;SDS011;22748;8.426;99.512;2023-04-06T07:59:37;16.90;;;15.13;;
36797;SDS011;22748;8.426;99.512;2023-04-06T08:02:07;16.60;;;14.90;;
36797;SDS011;22748;8.426;99.512;2023-04-06T08:04:37;16.48;;;14.95;;
36797;SDS011;22748;8.426;99.512;2023-04-06T08:07:21;16.58;;;14.90;;
36797;SDS011;22748;8.426;99.512;2023-04-06T08:09:51;16.27;;;14.60;;
36797;SDS011;22748;8.426;99.512;2023-04-06T08:12:22;16.00;;;14.35;;
36797;SDS011;22748;8.426;99.512;2023-04-06T08:14:54;16.50;;;14.85;;
36797;SDS011;22748;8.426;99.512;2023-04-06T08:17:31;37.38;;;30.25;;
36797;SDS011;22748;8.426;99.512;2023-04-06T08:20:03;20.35;;;17.98;;
36797;SDS011;22748;8.426;99.512;2023-04-06T08:22:34;19.25;;;14.55;;
36797;SDS011;22748;8.426;99.512;2023-04-06T08:25:05;17.27;;;15.02;;
36797;SDS011;22748;8.426;99.512;2023-04-06T08:27:36;15.48;;;13.85;;
36797;SDS011;22748;8.426;99.512;2023-04-06T08:30:09;15.40;;;13.93;;
36797;SDS011;22748;8.426;99.512;2023-04-06T08:32:41;15.75;;;14.15;;
36797;SDS011;22748;8.426;99.512;2023-04-06T08:35:15;15.82;;;14.13;;
36797;SDS011;22748;8.426;99.512;2023-04-06T08:37:45;19.58;;;17.58;;
36797;SDS011;22748;8.426;99.512;2023-04-06T08:40:16;19.23;;;16.15;;
36797;SDS011;22748;8.426;99.512;2023-04-06T08:42:48;18.33;;;15.40;;
36797;SDS011;22748;8.426;99.512;2023-04-06T08:45:25;16.60;;;14.88;;
36797;SDS011;22748;8.426;99.512;2023-04-06T08:47:55;15.95;;;14.32;;
36797;SDS011;22748;8.426;99.512;2023-04-06T08:50:28;14.15;;;12.80;;
36797;SDS011;22748;8.426;99.512;2023-04-06T08:53:01;15.35;;;13.85;;
36797;SDS011;22748;8.426;99.512;2023-04-06T08:58:04;14.70;;;13.30;;
36797;SDS011;22748;8.426;99.512;2023-04-06T09:00:39;14.68;;;13.30;;
36797;SDS011;22748;8.426;99.512;2023-04-06T09:03:11;15.80;;;14.20;;
36797;SDS011;22748;8.426;99.512;2023-04-06T09:05:43;14.82;;;13.43;;
36797;SDS011;22748;8.426;99.512;2023-04-06T09:08:16;15.52;;;14.13;;
36797;SDS011;22748;8.426;99.512;2023-04-06T09:10:47;15.15;;;13.68;;
36797;SDS011;22748;8.426;99.512;2023-04-06T09:13:19;14.80;;;13.43;;
36797;SDS011;22748;8.426;99.512;2023-04-06T09:16:00;15.48;;;14.18;;
36797;SDS011;22748;8.426;99.512;2023-04-06T09:18:32;16.75;;;15.05;;
36797;SDS011;22748;8.426;99.512;2023-04-06T09:21:04;16.85;;;15.35;;
36797;SDS011;22748;8.426;99.512;2023-04-06T09:23:37;17.27;;;15.52;;
36797;SDS011;22748;8.426;99.512;2023-04-06T09:26:09;17.15;;;15.55;;
36797;SDS011;22748;8.426;99.512;2023-04-06T09:28:45;18.40;;;15.85;;
36797;SDS011;22748;8.426;99.512;2023-04-06T09:31:22;17.45;;;15.75;;
36797;SDS011;22748;8.426;99.512;2023-04-06T09:33:54;16.75;;;15.25;;
36797;SDS011;22748;8.426;99.512;2023-04-06T09:36:30;16.42;;;14.85;;
36797;SDS011;22748;8.426;99.512;2023-04-06T09:39:02;20.85;;;16.75;;
36797;SDS011;22748;8.426;99.512;2023-04-06T09:41:34;17.35;;;15.52;;
36797;SDS011;22748;8.426;99.512;2023-04-06T09:44:07;18.40;;;16.58;;
36797;SDS011;22748;8.426;99.512;2023-04-06T09:46:41;17.23;;;15.63;;
36797;SDS011;22748;8.426;99.512;2023-04-06T09:49:13;16.50;;;14.75;;
36797;SDS011;22748;8.426;99.512;2023-04-06T09:51:46;16.67;;;15.18;;
36797;SDS011;22748;8.426;99.512;2023-04-06T09:54:23;17.35;;;15.65;;
36797;SDS011;22748;8.426;99.512;2023-04-06T09:57:00;18.40;;;16.70;;
36797;SDS011;22748;8.426;99.512;2023-04-06T09:59:39;20.83;;;17.03;;
36797;SDS011;22748;8.426;99.512;2023-04-06T10:02:18;17.63;;;15.48;;
36797;SDS011;22748;8.426;99.512;2023-04-06T10:04:58;20.13;;;15.50;;
36797;SDS011;22748;8.426;99.512;2023-04-06T10:07:31;17.80;;;14.13;;
36797;SDS011;22748;8.426;99.512;2023-04-06T10:10:07;17.88;;;16.05;;
36797;SDS011;22748;8.426;99.512;2023-04-06T10:12:39;22.75;;;17.90;;
36797;SDS011;22748;8.426;99.512;2023-04-06T10:15:10;21.88;;;16.92;;
36797;SDS011;22748;8.426;99.512;2023-04-06T10:17:45;25.67;;;15.55;;
36797;SDS011;22748;8.426;99.512;2023-04-06T10:20:22;26.92;;;15.07;;
36797;SDS011;22748;8.426;99.512;2023-04-06T10:22:57;31.42;;;15.82;;
36797;SDS011;22748;8.426;99.512;2023-04-06T10:25:35;28.85;;;16.40;;
36797;SDS011;22748;8.426;99.512;2023-04-06T10:28:05;23.02;;;14.52;;
36797;SDS011;22748;8.426;99.512;2023-04-06T10:30:42;20.73;;;14.60;;
36797;SDS011;22748;8.426;99.512;2023-04-06T10:33:15;15.27;;;13.02;;
36797;SDS011;22748;8.426;99.512;2023-04-06T10:35:47;24.33;;;14.18;;
36797;SDS011;22748;8.426;99.512;2023-04-06T10:38:19;15.55;;;13.90;;
36797;SDS011;22748;8.426;99.512;2023-04-06T10:40:50;38.80;;;17.52;;
36797;SDS011;22748;8.426;99.512;2023-04-06T10:43:24;34.13;;;17.17;;
36797;SDS011;22748;8.426;99.512;2023-04-06T10:45:54;20.33;;;14.40;;
36797;SDS011;22748;8.426;99.512;2023-04-06T10:48:36;15.63;;;13.10;;
36797;SDS011;22748;8.426;99.512;2023-04-06T10:51:10;13.95;;;11.85;;
36797;SDS011;22748;8.426;99.512;2023-04-06T10:53:42;14.95;;;11.07;;
36797;SDS011;22748;8.426;99.512;2023-04-06T10:56:17;19.67;;;14.38;;
36797;SDS011;22748;8.426;99.512;2023-04-06T10:58:52;9.45;;;8.60;;
36797;SDS011;22748;8.426;99.512;2023-04-06T11:01:25;15.75;;;10.55;;
36797;SDS011;22748;8.426;99.512;2023-04-06T11:04:00;10.90;;;9.15;;
36797;SDS011;22748;8.426;99.512;2023-04-06T11:06:30;11.30;;;9.02;;
36797;SDS011;22748;8.426;99.512;2023-04-06T11:09:02;9.35;;;7.82;;
36797;SDS011;22748;8.426;99.512;2023-04-06T11:11:33;11.35;;;8.27;;
36797;SDS011;22748;8.426;99.512;2023-04-06T11:14:09;10.77;;;8.25;;
36797;SDS011;22748;8.426;99.512;2023-04-06T11:16:40;13.55;;;5.63;;
36797;SDS011;22748;8.426;99.512;2023-04-06T11:19:13;5.75;;;4.93;;
36797;SDS011;22748;8.426;99.512;2023-04-06T11:21:45;8.10;;;3.90;;
36797;SDS011;22748;8.426;99.512;2023-04-06T11:24:17;4.95;;;3.10;;
36797;SDS011;22748;8.426;99.512;2023-04-06T11:26:49;3.75;;;3.15;;
36797;SDS011;22748;8.426;99.512;2023-04-06T11:29:30;5.65;;;2.97;;
36797;SDS011;22748;8.426;99.512;2023-04-06T11:32:05;3.80;;;3.40;;
36797;SDS011;22748;8.426;99.512;2023-04-06T11:34:38;4.15;;;3.70;;
36797;SDS011;22748;8.426;99.512;2023-04-06T11:37:10;5.45;;;4.40;;
36797;SDS011;22748;8.426;99.512;2023-04-06T11:39:43;4.38;;;3.53;;
36797;SDS011;22748;8.426;99.512;2023-04-06T11:42:34;5.55;;;3.95;;
36797;SDS011;22748;8.426;99.512;2023-04-06T11:45:06;5.90;;;4.60;;
36797;SDS011;22748;8.426;99.512;2023-04-06T11:47:39;6.40;;;4.57;;
36797;SDS011;22748;8.426;99.512;2023-04-06T11:50:12;6.55;;;4.20;;
36797;SDS011;22748;8.426;99.512;2023-04-06T11:52:43;5.60;;;4.75;;
36797;SDS011;22748;8.426;99.512;2023-04-06T11:55:18;6.45;;;4.78;;
36797;SDS011;22748;8.426;99.512;2023-04-06T11:57:49;6.82;;;4.65;;
36797;SDS011;22748;8.426;99.512;2023-04-06T12:02:50;4.97;;;4.47;;
36797;SDS011;22748;8.426;99.512;2023-04-06T12:05:24;6.53;;;4.30;;
36797;SDS011;22748;8.426;99.512;2023-04-06T12:07:55;4.40;;;3.88;;
36797;SDS011;22748;8.426;99.512;2023-04-06T12:12:58;9.32;;;5.05;;
36797;SDS011;22748;8.426;99.512;2023-04-06T12:15:30;5.65;;;4.32;;
36797;SDS011;22748;8.426;99.512;2023-04-06T12:20:32;4.75;;;4.32;;
36797;SDS011;22748;8.426;99.512;2023-04-06T12:23:03;5.90;;;4.30;;
36797;SDS011;22748;8.426;99.512;2023-04-06T12:25:39;7.55;;;4.40;;
36797;SDS011;22748;8.426;99.512;2023-04-06T12:28:11;4.65;;;4.22;;
36797;SDS011;22748;8.426;99.512;2023-04-06T12:30:43;8.52;;;4.45;;
36797;SDS011;22748;8.426;99.512;2023-04-06T12:33:13;5.13;;;4.63;;
36797;SDS011;22748;8.426;99.512;2023-04-06T12:38:46;9.35;;;4.97;;
36797;SDS011;22748;8.426;99.512;2023-04-06T12:41:17;8.43;;;5.35;;
36797;SDS011;22748;8.426;99.512;2023-04-06T12:43:52;5.57;;;5.00;;
36797;SDS011;22748;8.426;99.512;2023-04-06T12:46:23;7.97;;;5.90;;
36797;SDS011;22748;8.426;99.512;2023-04-06T12:48:54;7.55;;;5.40;;
36797;SDS011;22748;8.426;99.512;2023-04-06T12:54:15;12.23;;;6.15;;
36797;SDS011;22748;8.426;99.512;2023-04-06T12:56:47;13.77;;;6.65;;
36797;SDS011;22748;8.426;99.512;2023-04-06T12:59:18;7.78;;;6.35;;
36797;SDS011;22748;8.426;99.512;2023-04-06T13:01:48;7.57;;;5.75;;
36797;SDS011;22748;8.426;99.512;2023-04-06T13:04:19;7.72;;;6.28;;
36797;SDS011;22748;8.426;99.512;2023-04-06T13:06:52;11.90;;;6.45;;
36797;SDS011;22748;8.426;99.512;2023-04-06T13:09:23;12.30;;;6.63;;
36797;SDS011;22748;8.426;99.512;2023-04-06T13:11:55;12.55;;;7.47;;
36797;SDS011;22748;8.426;99.512;2023-04-06T13:14:25;11.18;;;7.70;;
36797;SDS011;22748;8.426;99.512;2023-04-06T13:16:56;13.10;;;8.63;;
36797;SDS011;22748;8.426;99.512;2023-04-06T13:22:04;12.80;;;10.00;;
36797;SDS011;22748;8.426;99.512;2023-04-06T13:24:35;19.27;;;11.00;;
36797;SDS011;22748;8.426;99.512;2023-04-06T13:27:05;18.10;;;10.77;;
36797;SDS011;22748;8.426;99.512;2023-04-06T13:29:35;15.20;;;9.90;;
36797;SDS011;22748;8.426;99.512;2023-04-06T13:32:06;12.93;;;10.43;;
36797;SDS011;22748;8.426;99.512;2023-04-06T13:34:36;14.73;;;9.88;;
36797;SDS011;22748;8.426;99.512;2023-04-06T13:37:14;21.38;;;10.35;;
36797;SDS011;22748;8.426;99.512;2023-04-06T13:39:46;14.43;;;9.57;;
36797;SDS011;22748;8.426;99.512;2023-04-06T13:42:16;14.93;;;9.73;;
36797;SDS011;22748;8.426;99.512;2023-04-06T13:44:47;21.00;;;10.88;;
36797;SDS011;22748;8.426;99.512;2023-04-06T13:47:22;25.85;;;11.65;;
36797;SDS011;22748;8.426;99.512;2023-04-06T13:49:53;24.45;;;15.80;;
36797;SDS011;22748;8.426;99.512;2023-04-06T13:52:28;30.10;;;15.75;;
36797;SDS011;22748;8.426;99.512;2023-04-06T13:55:00;22.25;;;13.75;;
36797;SDS011;22748;8.426;99.512;2023-04-06T13:57:31;17.27;;;12.63;;
36797;SDS011;22748;8.426;99.512;2023-04-06T14:00:03;19.92;;;13.75;;
36797;SDS011;22748;8.426;99.512;2023-04-06T14:02:36;18.50;;;12.52;;
36797;SDS011;22748;8.426;99.512;2023-04-06T14:05:08;19.98;;;10.60;;
36797;SDS011;22748;8.426;99.512;2023-04-06T14:07:43;14.43;;;9.70;;
36797;SDS011;22748;8.426;99.512;2023-04-06T14:10:13;13.98;;;10.00;;
36797;SDS011;22748;8.426;99.512;2023-04-06T14:12:48;17.17;;;8.90;;
36797;SDS011;22748;8.426;99.512;2023-04-06T14:15:19;12.45;;;8.25;;
36797;SDS011;22748;8.426;99.512;2023-04-06T14:17:51;14.52;;;9.13;;
36797;SDS011;22748;8.426;99.512;2023-04-06T14:20:21;12.90;;;8.57;;
36797;SDS011;22748;8.426;99.512;2023-04-06T14:22:57;15.77;;;8.93;;
36797;SDS011;22748;8.426;99.512;2023-04-06T14:25:30;15.05;;;8.95;;
36797;SDS011;22748;8.426;99.512;2023-04-06T14:28:00;12.80;;;9.35;;
36797;SDS011;22748;8.426;99.512;2023-04-06T14:30:32;10.77;;;8.68;;
36797;SDS011;22748;8.426;99.512;2023-04-06T14:33:05;11.02;;;8.52;;
36797;SDS011;22748;8.426;99.512;2023-04-06T14:35:37;14.70;;;9.57;;
36797;SDS011;22748;8.426;99.512;2023-04-06T14:38:11;15.57;;;9.93;;
36797;SDS011;22748;8.426;99.512;2023-04-06T14:40:42;11.55;;;9.48;;
36797;SDS011;22748;8.426;99.512;2023-04-06T14:43:13;16.30;;;10.15;;
36797;SDS011;22748;8.426;99.512;2023-04-06T14:48:13;14.10;;;8.88;;
36797;SDS011;22748;8.426;99.512;2023-04-06T14:50:52;11.93;;;8.43;;
36797;SDS011;22748;8.426;99.512;2023-04-06T14:53:25;13.75;;;10.13;;
36797;SDS011;22748;8.426;99.512;2023-04-06T14:55:56;12.88;;;9.52;;
36797;SDS011;22748;8.426;99.512;2023-04-06T14:58:27;10.25;;;8.82;;
36797;SDS011;22748;8.426;99.512;2023-04-06T15:00:58;12.87;;;10.57;;
36797;SDS011;22748;8.426;99.512;2023-04-06T15:03:30;17.40;;;10.13;;
36797;SDS011;22748;8.426;99.512;2023-04-06T15:06:01;14.07;;;11.18;;
36797;SDS011;22748;8.426;99.512;2023-04-06T15:08:35;14.02;;;9.80;;
36797;SDS011;22748;8.426;99.512;2023-04-06T15:11:06;12.63;;;11.30;;
36797;SDS011;22748;8.426;99.512;2023-04-06T15:13:36;15.07;;;10.60;;
36797;SDS011;22748;8.426;99.512;2023-04-06T15:16:08;11.98;;;10.20;;
36797;SDS011;22748;8.426;99.512;2023-04-06T15:18:41;12.95;;;10.23;;
36797;SDS011;22748;8.426;99.512;2023-04-06T15:23:44;12.55;;;9.00;;
36797;SDS011;22748;8.426;99.512;2023-04-06T15:26:15;10.55;;;8.73;;
36797;SDS011;22748;8.426;99.512;2023-04-06T15:28:52;13.88;;;9.40;;
36797;SDS011;22748;8.426;99.512;2023-04-06T15:31:23;10.63;;;9.53;;
36797;SDS011;22748;8.426;99.512;2023-04-06T15:36:25;10.60;;;8.05;;
36797;SDS011;22748;8.426;99.512;2023-04-06T15:38:59;10.75;;;8.80;;
36797;SDS011;22748;8.426;99.512;2023-04-06T15:41:35;11.43;;;8.57;;
36797;SDS011;22748;8.426;99.512;2023-04-06T15:44:06;13.82;;;8.68;;
36797;SDS011;22748;8.426;99.512;2023-04-06T15:49:07;10.48;;;8.60;;
36797;SDS011;22748;8.426;99.512;2023-04-06T15:51:38;17.48;;;8.85;;
36797;SDS011;22748;8.426;99.512;2023-04-06T15:54:16;11.52;;;8.23;;
36797;SDS011;22748;8.426;99.512;2023-04-06T15:56:48;10.18;;;8.05;;
36797;SDS011;22748;8.426;99.512;2023-04-06T16:01:51;10.93;;;8.57;;
36797;SDS011;22748;8.426;99.512;2023-04-06T16:04:23;12.55;;;9.32;;